sensor_id;sensor_type;location;lat;lon;timestamp;pressure;altitude;pressure_sealevel;temperature;humidity
43281;BME280;62175;49.416;8.690;2023-05-21T00:18:29;100158.28;;;20.15;53.72
43281;BME280;62175;49.416;8.690;2023-05-21T00:23:31;100155.51;;;20.13;53.54
43281;BME280;62175;49.416;8.690;2023-05-21T00:36:27;100143.77;;;20.37;53.28
43281;BME280;62175;49.416;8.690;2023-05-21T00:42:39;100143.98;;;20.30;52.73
43281;BME280;62175;49.416;8.690;2023-05-21T00:49:28;100131.67;;;20.79;52.56
43281;BME280;62175;49.416;8.690;2023-05-21T00:51:59;100133.19;;;19.84;52.45
43281;BME280;62175;49.416;8.690;2023-05-21T00:54:39;100133.79;;;19.84;52.89
43281;BME280;62175;49.416;8.690;2023-05-21T00:57:11;100127.05;;;20.07;52.59
43281;BME280;62175;49.416;8.690;2023-05-21T00:59:44;100126.64;;;20.28;52.82
43281;BME280;62175;49.416;8.690;2023-05-21T01:02:15;100129.07;;;20.18;52.80
43281;BME280;62175;49.416;8.690;2023-05-21T01:04:49;100130.19;;;20.03;52.71
43281;BME280;62175;49.416;8.690;2023-05-21T01:07:26;100128.33;;;20.06;53.66
43281;BME280;62175;49.416;8.690;2023-05-21T01:09:57;100129.24;;;20.29;53.00
43281;BME280;62175;49.416;8.690;2023-05-21T01:12:28;100126.24;;;19.68;52.98
43281;BME280;62175;49.416;8.690;2023-05-21T01:15:04;100123.24;;;20.21;52.99
43281;BME280;62175;49.416;8.690;2023-05-21T01:17:42;100119.88;;;19.93;53.75
43281;BME280;62175;49.416;8.690;2023-05-21T01:20:15;100112.93;;;20.04;53.39
43281;BME280;62175;49.416;8.690;2023-05-21T01:22:52;100112.10;;;19.85;54.28
43281;BME280;62175;49.416;8.690;2023-05-21T01:25:24;100110.44;;;19.97;53.50
43281;BME280;62175;49.416;8.690;2023-05-21T01:27:55;100110.50;;;19.99;53.22
43281;BME280;62175;49.416;8.690;2023-05-21T01:30:26;100106.55;;;19.93;53.60
43281;BME280;62175;49.416;8.690;2023-05-21T01:33:06;100105.37;;;19.91;53.90
43281;BME280;62175;49.416;8.690;2023-05-21T01:35:46;100103.70;;;19.86;53.62
43281;BME280;62175;49.416;8.690;2023-05-21T01:38:25;100098.26;;;19.75;53.30
43281;BME280;62175;49.416;8.690;2023-05-21T01:52:20;100093.35;;;20.06;54.65
43281;BME280;62175;49.416;8.690;2023-05-21T01:58:36;100096.62;;;20.13;53.13
43281;BME280;62175;49.416;8.690;2023-05-21T02:11:19;100085.76;;;19.67;55.96
43281;BME280;62175;49.416;8.690;2023-05-21T02:26:15;100090.06;;;19.85;55.83
43281;BME280;62175;49.416;8.690;2023-05-21T02:51:37;100077.08;;;19.11;57.21
43281;BME280;62175;49.416;8.690;2023-05-21T02:59:18;100069.96;;;19.93;54.81
43281;BME280;62175;49.416;8.690;2023-05-21T03:15:05;100071.03;;;19.44;56.48
43281;BME280;62175;49.416;8.690;2023-05-21T03:17:49;100072.42;;;19.32;55.58
43281;BME280;62175;49.416;8.690;2023-05-21T03:20:21;100072.35;;;18.92;55.43
43281;BME280;62175;49.416;8.690;2023-05-21T03:22:55;100070.73;;;19.18;55.60
43281;BME280;62175;49.416;8.690;2023-05-21T03:25:29;100072.51;;;19.12;56.04
43281;BME280;62175;49.416;8.690;2023-05-21T03:28:03;100071.14;;;19.31;55.50
43281;BME280;62175;49.416;8.690;2023-05-21T03:30:35;100070.86;;;19.22;54.82
43281;BME280;62175;49.416;8.690;2023-05-21T03:33:07;100070.58;;;19.57;55.11
43281;BME280;62175;49.416;8.690;2023-05-21T03:35:47;100074.60;;;19.26;55.32
43281;BME280;62175;49.416;8.690;2023-05-21T03:38:34;100076.98;;;19.28;55.23
43281;BME280;62175;49.416;8.690;2023-05-21T03:41:15;100077.23;;;19.52;54.70
43281;BME280;62175;49.416;8.690;2023-05-21T03:44:01;100077.63;;;19.15;56.28
43281;BME280;62175;49.416;8.690;2023-05-21T03:46:36;100072.72;;;19.24;55.42
43281;BME280;62175;49.416;8.690;2023-05-21T03:49:25;100072.47;;;19.00;55.24
43281;BME280;62175;49.416;8.690;2023-05-21T03:51:59;100070.84;;;18.93;55.47
43281;BME280;62175;49.416;8.690;2023-05-21T03:54:37;100069.59;;;19.16;55.16
43281;BME280;62175;49.416;8.690;2023-05-21T03:57:17;100071.44;;;18.99;54.87
43281;BME280;62175;49.416;8.690;2023-05-21T05:15:59;100101.98;;;19.01;59.92
43281;BME280;62175;49.416;8.690;2023-05-21T05:19:02;100102.66;;;17.63;56.44
43281;BME280;62175;49.416;8.690;2023-05-21T05:30:36;100099.28;;;20.15;55.16
43281;BME280;62175;49.416;8.690;2023-05-21T22:47:37;100046.27;;;21.42;55.16
43281;BME280;62175;49.416;8.690;2023-05-21T23:09:47;100042.76;;;20.93;54.62
43281;BME280;62175;49.416;8.690;2023-05-21T23:22:46;100047.27;;;20.82;53.82
43281;BME280;62175;49.416;8.690;2023-05-21T23:25:13;100045.40;;;20.60;54.84
43281;BME280;62175;49.416;8.690;2023-05-21T23:27:40;100044.34;;;20.62;54.36
43281;BME280;62175;49.416;8.690;2023-05-21T23:30:08;100047.17;;;20.77;54.39
43281;BME280;62175;49.416;8.690;2023-05-21T23:32:38;100049.46;;;20.89;53.18
43281;BME280;62175;49.416;8.690;2023-05-21T23:35:07;100049.51;;;20.86;53.96
43281;BME280;62175;49.416;8.690;2023-05-21T23:42:27;100058.97;;;21.08;54.56
43281;BME280;62175;49.416;8.690;2023-05-21T23:44:55;100063.54;;;20.56;53.63
43281;BME280;62175;49.416;8.690;2023-05-21T23:47:24;100065.65;;;20.46;54.25
43281;BME280;62175;49.416;8.690;2023-05-21T23:49:52;100063.28;;;20.95;54.62
43281;BME280;62175;49.416;8.690;2023-05-21T23:52:20;100066.00;;;20.72;54.44
43281;BME280;62175;49.416;8.690;2023-05-21T23:54:48;100064.76;;;20.72;54.19
43281;BME280;62175;49.416;8.690;2023-05-21T23:57:17;100060.58;;;20.76;53.31
43281;BME280;62175;49.416;8.690;2023-05-21T23:59:44;100061.41;;;20.79;54.73
